Time;durP1;ratioP1;P1;durP2;ratioP2;P2;SDS_P1;SDS_P2;PMS_P1;PMS_P2;Temp;Humidity;BMP_temperature;BMP_pressure;BME280_temperature;BME280_humidity;BME280_pressure;Samples;Min_cycle;Max_cycle;Signal;HPM_P1;HPM_P2
2021/10/27 00:01:55;;;;;;;36.13;19.20;;;6.90;99.90;;;;;;5037091;28;21305;-71
2021/10/27 00:04:22;;;;;;;35.22;19.67;;;6.90;99.90;;;;;;5038314;28;20052;-71
2021/10/27 00:06:49;;;;;;;39.10;19.95;;;6.90;99.90;;;;;;5037924;28;20136;-69
2021/10/27 00:09:16;;;;;;;36.00;19.38;;;6.90;99.90;;;;;;5037641;28;20324;-69
2021/10/27 00:11:45;;;;;;;36.63;18.27;;;6.90;99.90;;;;;;5038752;28;20091;-70
2021/10/27 00:14:12;;;;;;;35.63;18.90;;;6.90;99.90;;;;;;5037754;28;20520;-70
2021/10/27 00:16:39;;;;;;;38.72;19.23;;;6.80;99.90;;;;;;5037281;28;20247;-71
2021/10/27 00:19:06;;;;;;;38.67;19.73;;;6.80;99.90;;;;;;5038828;28;20053;-70
2021/10/27 00:21:33;;;;;;;35.40;19.45;;;6.70;99.90;;;;;;5037379;28;20064;-70
2021/10/27 00:24:00;;;;;;;34.97;18.80;;;6.70;99.90;;;;;;5038661;28;20082;-70
2021/10/27 00:26:27;;;;;;;35.00;19.15;;;6.60;99.90;;;;;;5037811;28;20106;-70
2021/10/27 00:28:56;;;;;;;37.63;21.35;;;6.60;99.90;;;;;;5037334;28;20118;-71
2021/10/27 00:31:23;;;;;;;37.97;19.75;;;6.60;99.90;;;;;;5036433;28;20123;-70
2021/10/27 00:33:50;;;;;;;44.63;20.00;;;6.60;99.90;;;;;;5038109;28;20056;-70
2021/10/27 00:36:18;;;;;;;41.35;20.40;;;6.60;99.90;;;;;;5036540;28;20052;-70
2021/10/27 00:38:45;;;;;;;44.88;22.92;;;6.70;99.90;;;;;;5037593;28;20052;-70
2021/10/27 00:41:12;;;;;;;41.67;21.48;;;6.70;99.90;;;;;;5037627;28;20048;-71
2021/10/27 00:43:39;;;;;;;41.35;21.33;;;6.70;99.90;;;;;;5036471;28;20056;-70
2021/10/27 00:46:18;;;;;;;45.95;21.67;;;6.70;99.90;;;;;;5037830;28;20052;-70
2021/10/27 00:48:45;;;;;;;46.85;22.02;;;6.60;99.90;;;;;;5038507;28;20126;-71
2021/10/27 00:51:12;;;;;;;48.60;22.23;;;6.60;99.90;;;;;;5038346;28;20390;-70
2021/10/27 00:53:40;;;;;;;49.53;23.75;;;6.50;99.90;;;;;;5037482;28;20513;-73
2021/10/27 00:56:08;;;;;;;44.65;22.20;;;6.50;99.90;;;;;;5037076;28;20044;-70
2021/10/27 00:58:36;;;;;;;49.67;23.40;;;6.60;99.90;;;;;;5038057;28;20056;-71
2021/10/27 01:01:03;;;;;;;49.53;22.90;;;6.50;99.90;;;;;;5037780;28;20135;-71
2021/10/27 01:03:32;;;;;;;45.92;22.30;;;6.40;99.90;;;;;;5037014;28;20053;-70
2021/10/27 01:05:59;;;;;;;51.95;23.73;;;6.40;99.90;;;;;;5037040;28;20119;-70
2021/10/27 01:08:26;;;;;;;45.17;22.90;;;6.40;99.90;;;;;;5037926;28;20506;-69
2021/10/27 01:10:54;;;;;;;48.90;22.90;;;6.40;99.90;;;;;;5036386;28;20410;-73
2021/10/27 01:13:21;;;;;;;38.88;21.15;;;6.40;99.90;;;;;;5036381;28;20143;-70
2021/10/27 01:15:48;;;;;;;44.33;22.25;;;6.30;99.90;;;;;;5035976;28;20052;-71
2021/10/27 01:18:15;;;;;;;45.15;21.08;;;6.30;99.90;;;;;;5038491;28;20405;-70
2021/10/27 01:20:43;;;;;;;46.90;22.30;;;6.30;99.90;;;;;;5040276;28;20064;-70
2021/10/27 01:23:11;;;;;;;48.90;24.02;;;6.20;99.90;;;;;;5040729;28;20056;-70
2021/10/27 01:25:38;;;;;;;48.63;23.38;;;6.30;99.90;;;;;;5039992;28;20048;-70
2021/10/27 01:28:05;;;;;;;58.80;25.45;;;6.30;99.90;;;;;;5040319;28;20103;-69
2021/10/27 01:30:32;;;;;;;46.90;24.55;;;6.40;99.90;;;;;;5040408;28;20091;-70
2021/10/27 01:32:59;;;;;;;59.65;25.50;;;6.40;99.90;;;;;;5041343;28;20059;-69
2021/10/27 01:35:26;;;;;;;69.32;26.55;;;6.50;99.90;;;;;;5040541;28;20053;-71
2021/10/27 01:37:55;;;;;;;93.15;29.58;;;6.50;99.90;;;;;;5040247;28;20052;-71
2021/10/27 01:40:22;;;;;;;72.40;27.95;;;6.50;99.90;;;;;;5040809;28;20060;-70
2021/10/27 01:42:52;;;;;;;67.78;27.48;;;6.60;99.90;;;;;;5040666;28;20099;-70
2021/10/27 01:45:19;;;;;;;78.38;27.83;;;6.60;99.90;;;;;;5039986;28;20076;-70
2021/10/27 01:47:47;;;;;;;77.07;27.77;;;6.70;99.90;;;;;;5039482;28;20102;-70
2021/10/27 01:50:15;;;;;;;103.65;30.02;;;6.60;99.90;;;;;;5040387;28;20067;-70
2021/10/27 01:52:42;;;;;;;96.60;29.45;;;6.60;99.90;;;;;;5041138;28;20064;-70
2021/10/27 01:55:11;;;;;;;95.97;27.80;;;6.60;99.90;;;;;;5040140;28;20084;-70
2021/10/27 01:57:38;;;;;;;84.78;26.83;;;6.60;99.90;;;;;;5041036;28;20045;-71
2021/10/27 02:00:07;;;;;;;92.82;27.88;;;6.50;99.90;;;;;;5041147;28;20045;-70
2021/10/27 02:02:34;;;;;;;60.60;25.10;;;6.50;99.90;;;;;;5039779;28;20049;-71
2021/10/27 02:05:01;;;;;;;65.40;26.33;;;6.50;99.90;;;;;;5039783;28;20089;-72
2021/10/27 02:07:29;;;;;;;58.90;24.95;;;6.40;99.90;;;;;;5039333;28;20049;-70
2021/10/27 02:09:56;;;;;;;56.00;24.33;;;6.40;99.90;;;;;;5039993;28;20088;-70
2021/10/27 02:12:24;;;;;;;85.22;26.75;;;6.30;99.90;;;;;;5039896;28;20083;-71
2021/10/27 02:14:52;;;;;;;67.63;24.95;;;6.30;99.90;;;;;;5040738;28;20056;-71
2021/10/27 02:17:19;;;;;;;79.93;26.00;;;6.30;99.90;;;;;;5039702;28;20104;-71
2021/10/27 02:19:46;;;;;;;106.53;26.00;;;6.30;99.90;;;;;;5040533;28;20094;-71
2021/10/27 02:22:13;;;;;;;77.38;24.77;;;6.20;99.90;;;;;;5040443;28;20214;-75
2021/10/27 02:24:40;;;;;;;103.28;28.02;;;6.30;99.90;;;;;;5039766;28;20053;-71
2021/10/27 02:27:07;;;;;;;84.10;25.88;;;6.30;99.90;;;;;;5039360;28;20483;-70
2021/10/27 02:29:37;;;;;;;79.90;24.75;;;6.10;99.90;;;;;;5039987;28;20494;-71
2021/10/27 02:32:05;;;;;;;76.40;24.98;;;6.10;99.90;;;;;;5040352;28;20505;-70
2021/10/27 02:34:32;;;;;;;64.28;22.90;;;6.00;99.90;;;;;;5040588;28;20065;-70
2021/10/27 02:36:59;;;;;;;78.78;25.08;;;6.00;99.90;;;;;;5038340;28;20501;-70
2021/10/27 02:39:26;;;;;;;65.32;21.70;;;6.00;99.90;;;;;;5039719;28;20103;-70
2021/10/27 02:41:54;;;;;;;55.25;21.70;;;5.90;99.90;;;;;;5040158;28;20110;-70
2021/10/27 02:44:22;;;;;;;75.68;23.58;;;5.80;99.90;;;;;;5040438;28;20057;-70
2021/10/27 02:46:51;;;;;;;61.40;22.88;;;5.70;99.90;;;;;;5039304;28;20053;-70
2021/10/27 02:49:18;;;;;;;59.75;21.75;;;5.70;99.90;;;;;;5039034;28;20792;-70
2021/10/27 02:51:46;;;;;;;74.00;24.75;;;5.60;99.90;;;;;;5039704;28;20061;-72
2021/10/27 02:54:13;;;;;;;56.45;21.27;;;5.60;99.90;;;;;;5039020;28;20049;-70
2021/10/27 02:56:40;;;;;;;67.95;22.67;;;5.60;99.90;;;;;;5038379;28;20413;-71
2021/10/27 02:59:07;;;;;;;59.05;21.02;;;5.50;99.90;;;;;;5039870;28;20060;-70
2021/10/27 03:01:34;;;;;;;51.70;20.35;;;5.50;99.90;;;;;;5039312;28;20123;-70
2021/10/27 03:04:02;;;;;;;59.95;22.45;;;5.50;99.90;;;;;;5040118;28;20053;-70
2021/10/27 03:06:29;;;;;;;56.97;22.95;;;5.40;99.90;;;;;;5038607;28;20107;-70
2021/10/27 03:08:56;;;;;;;55.90;23.48;;;5.40;99.90;;;;;;5039572;28;20056;-71
2021/10/27 03:11:23;;;;;;;74.53;23.40;;;5.40;99.90;;;;;;5038903;28;20076;-70
2021/10/27 03:13:50;;;;;;;89.10;23.27;;;5.40;99.90;;;;;;5038747;28;20045;-70
2021/10/27 03:16:17;;;;;;;82.70;25.20;;;5.50;99.90;;;;;;5039162;28;20091;-70
2021/10/27 03:18:44;;;;;;;109.10;26.15;;;5.60;99.90;;;;;;5038638;28;21134;-71
2021/10/27 03:21:13;;;;;;;82.45;25.40;;;5.60;99.90;;;;;;5039586;28;20414;-70
2021/10/27 03:23:40;;;;;;;113.13;26.38;;;5.70;99.90;;;;;;5040201;28;20084;-70
2021/10/27 03:26:07;;;;;;;96.28;28.00;;;5.80;99.90;;;;;;5039437;28;20044;-70
2021/10/27 03:28:34;;;;;;;166.98;31.55;;;5.90;99.90;;;;;;5039785;28;20057;-69
2021/10/27 03:31:01;;;;;;;136.73;29.00;;;5.90;99.90;;;;;;5038793;28;20092;-70
2021/10/27 03:33:28;;;;;;;142.77;32.38;;;6.00;99.90;;;;;;5038972;28;20571;-71
2021/10/27 03:35:55;;;;;;;108.68;29.58;;;6.00;99.90;;;;;;5037570;28;20143;-70
2021/10/27 03:38:23;;;;;;;113.38;31.58;;;6.00;99.90;;;;;;5039070;28;20643;-71
2021/10/27 03:40:50;;;;;;;136.23;33.22;;;6.00;99.90;;;;;;5038310;28;20057;-70
2021/10/27 03:43:19;;;;;;;182.50;35.33;;;6.00;99.90;;;;;;5038945;28;20479;-71
2021/10/27 03:45:46;;;;;;;118.88;31.10;;;6.10;99.90;;;;;;5038082;28;20094;-71
2021/10/27 03:48:14;;;;;;;119.10;30.27;;;6.00;99.90;;;;;;5038884;28;21174;-71
2021/10/27 03:50:41;;;;;;;119.45;29.77;;;6.00;99.90;;;;;;5038717;28;20045;-71
2021/10/27 03:53:09;;;;;;;112.00;30.00;;;6.20;99.90;;;;;;5038762;28;20152;-70
2021/10/27 03:55:37;;;;;;;91.43;27.77;;;6.00;99.90;;;;;;5038332;28;20045;-72
2021/10/27 03:58:04;;;;;;;86.22;27.92;;;6.00;99.90;;;;;;5039588;28;20089;-71
2021/10/27 04:00:31;;;;;;;85.30;26.05;;;6.00;99.90;;;;;;5038384;28;20512;-70
2021/10/27 04:02:58;;;;;;;73.88;23.65;;;5.90;99.90;;;;;;5039168;28;20056;-70
2021/10/27 04:05:26;;;;;;;74.95;24.67;;;5.90;99.90;;;;;;5038816;28;20099;-71
2021/10/27 04:07:52;;;;;;;55.83;22.85;;;5.90;99.90;;;;;;5039140;28;20048;-71
2021/10/27 04:10:19;;;;;;;58.20;20.95;;;5.90;99.90;;;;;;5039633;28;20509;-70
2021/10/27 04:12:48;;;;;;;56.67;22.83;;;5.90;99.90;;;;;;5038313;28;20099;-71
2021/10/27 04:15:15;;;;;;;62.30;22.20;;;6.00;99.90;;;;;;5038876;28;20049;-71
2021/10/27 04:17:42;;;;;;;43.13;20.33;;;5.90;99.90;;;;;;5038864;28;20103;-70
2021/10/27 04:20:11;;;;;;;43.78;20.13;;;5.80;99.90;;;;;;5040302;28;20052;-71
2021/10/27 04:22:40;;;;;;;47.83;22.13;;;5.80;99.90;;;;;;5039883;28;20053;-71
2021/10/27 04:25:09;;;;;;;45.20;20.73;;;5.80;99.90;;;;;;5040396;28;20119;-71
2021/10/27 04:27:36;;;;;;;46.53;20.77;;;5.80;99.90;;;;;;5041423;28;20071;-70
2021/10/27 04:30:06;;;;;;;47.10;21.70;;;5.90;99.90;;;;;;5041254;28;20435;-71
2021/10/27 04:32:34;;;;;;;50.07;21.23;;;5.80;99.90;;;;;;5039715;28;20065;-71
2021/10/27 04:35:01;;;;;;;45.50;20.80;;;5.80;99.90;;;;;;5039774;28;20501;-70
2021/10/27 04:37:32;;;;;;;44.53;21.57;;;5.80;99.90;;;;;;5038809;28;20045;-71
2021/10/27 04:39:59;;;;;;;42.67;21.48;;;5.80;99.90;;;;;;5039481;28;20147;-71
2021/10/27 04:42:26;;;;;;;46.20;21.25;;;5.80;99.90;;;;;;5038836;28;20053;-70
2021/10/27 04:44:53;;;;;;;49.13;22.87;;;5.80;99.90;;;;;;5038739;28;20065;-71
2021/10/27 04:47:21;;;;;;;51.03;23.70;;;5.70;99.90;;;;;;5038199;28;20391;-71
2021/10/27 04:49:48;;;;;;;46.10;22.02;;;5.80;99.90;;;;;;5037655;28;20079;-71
2021/10/27 04:52:15;;;;;;;44.97;22.40;;;5.70;99.90;;;;;;5037477;28;20061;-71
2021/10/27 04:54:42;;;;;;;46.50;22.45;;;5.70;99.90;;;;;;5038162;28;20114;-70
2021/10/27 04:57:10;;;;;;;49.35;22.65;;;5.70;99.90;;;;;;5037356;28;20053;-70
2021/10/27 04:59:41;;;;;;;40.22;21.88;;;5.70;99.90;;;;;;5037362;28;20615;-70
2021/10/27 05:02:08;;;;;;;46.90;22.65;;;5.80;99.90;;;;;;5038147;28;20088;-71
2021/10/27 05:04:37;;;;;;;45.45;22.73;;;6.00;99.90;;;;;;5036986;28;20132;-70
2021/10/27 05:07:05;;;;;;;42.97;21.48;;;6.00;99.90;;;;;;5036976;28;20057;-71
2021/10/27 05:09:32;;;;;;;42.70;21.33;;;6.10;99.90;;;;;;5037577;28;20528;-70
2021/10/27 05:11:59;;;;;;;44.10;21.30;;;6.20;99.90;;;;;;5036352;28;20049;-71
2021/10/27 05:14:26;;;;;;;40.72;21.00;;;6.30;99.90;;;;;;5036406;28;20053;-76
2021/10/27 05:16:53;;;;;;;38.42;20.63;;;6.30;99.90;;;;;;5036787;28;20056;-71
2021/10/27 05:19:20;;;;;;;40.55;20.60;;;6.40;99.90;;;;;;5036781;28;20053;-71
2021/10/27 05:21:49;;;;;;;40.63;20.88;;;6.40;99.90;;;;;;5037930;28;20139;-70
2021/10/27 05:24:16;;;;;;;32.92;18.75;;;6.40;99.90;;;;;;5036475;28;20045;-70
2021/10/27 05:26:43;;;;;;;29.95;17.88;;;6.40;99.90;;;;;;5037233;28;20096;-70
2021/10/27 05:29:10;;;;;;;33.00;19.58;;;6.50;99.90;;;;;;5037710;28;20091;-70
2021/10/27 05:31:37;;;;;;;33.35;18.73;;;6.50;99.90;;;;;;5036083;28;20049;-71
2021/10/27 05:34:04;;;;;;;35.05;19.48;;;6.50;99.90;;;;;;5036475;28;20068;-71
2021/10/27 05:36:32;;;;;;;38.25;18.63;;;6.60;99.90;;;;;;5036337;28;20114;-70
2021/10/27 05:39:01;;;;;;;34.15;19.10;;;6.60;99.90;;;;;;5037651;28;20053;-71
2021/10/27 05:41:28;;;;;;;42.22;20.77;;;6.60;99.90;;;;;;5036910;28;20065;-70
2021/10/27 05:43:56;;;;;;;36.90;20.67;;;6.60;99.90;;;;;;5036852;28;20547;-71
2021/10/27 05:46:24;;;;;;;41.08;20.80;;;6.60;99.90;;;;;;5037233;28;20080;-71
2021/10/27 05:49:00;;;;;;;36.97;19.75;;;6.60;99.90;;;;;;5038535;28;20076;-71
2021/10/27 05:51:37;;;;;;;38.70;19.70;;;6.60;99.90;;;;;;5036577;28;20501;-71
2021/10/27 05:56:50;;;;;;;33.92;18.15;;;6.70;99.90;;;;;;5036930;28;20056;-71
2021/10/27 05:59:17;;;;;;;35.30;18.73;;;6.70;99.90;;;;;;5036397;28;20878;-71
2021/10/27 06:01:44;;;;;;;35.03;18.33;;;6.80;99.90;;;;;;5037419;28;20136;-70
2021/10/27 06:04:11;;;;;;;36.40;18.20;;;6.70;99.90;;;;;;5038559;28;20622;-71
2021/10/27 06:06:38;;;;;;;32.58;16.60;;;6.60;99.90;;;;;;5038879;28;20053;-70
2021/10/27 06:09:07;;;;;;;33.80;17.85;;;6.60;99.90;;;;;;5040899;28;20091;-70
2021/10/27 06:11:34;;;;;;;32.22;17.77;;;6.70;99.90;;;;;;5039066;28;20563;-71
2021/10/27 06:14:02;;;;;;;32.95;17.92;;;6.70;99.90;;;;;;5039334;28;20497;-71
2021/10/27 06:16:29;;;;;;;32.88;17.45;;;6.70;99.90;;;;;;5039498;28;20045;-70
2021/10/27 06:18:57;;;;;;;32.03;17.02;;;6.70;99.90;;;;;;5039914;28;20061;-70
2021/10/27 06:21:24;;;;;;;31.40;17.60;;;6.60;99.90;;;;;;5039760;28;20528;-70
2021/10/27 06:23:51;;;;;;;32.35;16.50;;;6.70;99.90;;;;;;5040008;28;20517;-70
2021/10/27 06:26:22;;;;;;;29.88;17.13;;;6.80;99.90;;;;;;5039557;28;20503;-70
2021/10/27 06:28:59;;;;;;;31.63;17.00;;;6.80;99.90;;;;;;5040898;28;20057;-70
2021/10/27 06:31:31;;;;;;;31.20;17.83;;;6.90;99.90;;;;;;5040399;28;20048;-70
2021/10/27 06:34:04;;;;;;;29.67;17.63;;;6.90;99.90;;;;;;5040363;28;20065;-71
2021/10/27 06:36:37;;;;;;;29.85;16.58;;;6.90;99.90;;;;;;5039295;28;20052;-71
2021/10/27 06:47:12;;;;;;;27.80;15.73;;;7.00;99.90;;;;;;5010555;28;20041;-71
2021/10/27 06:49:39;;;;;;;29.88;16.02;;;7.00;99.90;;;;;;5038683;28;20110;-71
2021/10/27 06:52:06;;;;;;;32.90;17.55;;;7.00;99.90;;;;;;5039292;28;20049;-72
2021/10/27 06:54:33;;;;;;;29.48;16.65;;;7.10;99.90;;;;;;5039168;28;20053;-71
2021/10/27 06:57:02;;;;;;;29.35;15.43;;;7.10;99.90;;;;;;5038362;28;20452;-71
2021/10/27 06:59:32;;;;;;;28.10;15.88;;;7.00;99.90;;;;;;5039318;28;20052;-71
2021/10/27 07:16:04;;;;;;;25.90;15.68;;;7.20;99.90;;;;;;5038052;28;20056;-72
2021/10/27 07:18:30;;;;;;;32.33;17.83;;;7.30;99.90;;;;;;5039109;28;20383;-72
2021/10/27 07:20:57;;;;;;;37.15;17.60;;;7.40;99.90;;;;;;5039637;28;20099;-70
2021/10/27 07:23:25;;;;;;;34.53;18.08;;;7.50;99.90;;;;;;5038880;28;20061;-70
2021/10/27 07:25:57;;;;;;;28.42;16.40;;;7.60;99.90;;;;;;5038686;28;20052;-70
2021/10/27 07:28:26;;;;;;;34.25;17.60;;;7.60;99.90;;;;;;5040033;28;20061;-70
2021/10/27 07:30:54;;;;;;;33.15;19.48;;;7.80;99.90;;;;;;5039211;28;20053;-71
2021/10/27 07:33:21;;;;;;;28.35;16.42;;;8.10;99.90;;;;;;5039062;28;20061;-70
2021/10/27 07:35:51;;;;;;;30.88;16.25;;;8.10;99.90;;;;;;5038555;28;20098;-70
2021/10/27 07:41:04;;;;;;;28.95;15.55;;;8.50;99.90;;;;;;5038949;28;20071;-71
2021/10/27 07:43:33;;;;;;;26.75;14.65;;;8.50;99.90;;;;;;5038498;28;20128;-70
2021/10/27 07:46:01;;;;;;;25.90;14.93;;;8.60;99.90;;;;;;5040002;28;20111;-70
2021/10/27 07:48:29;;;;;;;22.38;13.38;;;8.60;99.90;;;;;;5039893;28;20140;-70
2021/10/27 07:50:57;;;;;;;27.13;13.68;;;8.50;99.90;;;;;;5039507;28;20049;-70
2021/10/27 07:53:24;;;;;;;23.25;13.50;;;8.50;99.90;;;;;;5037173;28;20152;-70
2021/10/27 07:55:52;;;;;;;25.73;13.80;;;8.80;99.90;;;;;;5036738;28;20092;-71
2021/10/27 07:58:21;;;;;;;28.27;13.75;;;9.00;99.90;;;;;;5036508;28;20128;-70
2021/10/27 08:00:51;;;;;;;27.55;13.65;;;9.30;99.90;;;;;;5036892;28;20154;-71
2021/10/27 08:03:19;;;;;;;21.65;13.43;;;9.30;99.90;;;;;;5037443;28;20370;-71
2021/10/27 08:05:47;;;;;;;25.08;13.82;;;9.40;99.90;;;;;;5035476;28;20053;-71
2021/10/27 08:08:16;;;;;;;19.65;12.32;;;9.40;99.90;;;;;;5036514;28;20052;-70
2021/10/27 08:10:43;;;;;;;21.50;13.40;;;9.40;99.90;;;;;;5037060;28;20055;-70
2021/10/27 08:13:10;;;;;;;21.38;12.35;;;9.40;99.90;;;;;;5036155;28;20165;-70
2021/10/27 08:15:38;;;;;;;24.48;13.00;;;9.40;99.90;;;;;;5035348;28;20536;-69
2021/10/27 08:18:11;;;;;;;22.70;12.07;;;9.60;99.90;;;;;;5035164;28;20061;-69
2021/10/27 08:20:38;;;;;;;20.13;11.90;;;9.60;99.90;;;;;;5036727;28;20517;-70
2021/10/27 08:23:08;;;;;;;21.60;11.90;;;9.50;99.90;;;;;;5036001;28;20053;-69
2021/10/27 08:25:40;;;;;;;17.33;11.57;;;9.80;99.90;;;;;;5035620;28;20148;-70
2021/10/27 08:28:11;;;;;;;23.25;12.00;;;9.80;99.90;;;;;;5036507;28;20083;-70
2021/10/27 08:30:43;;;;;;;16.60;11.13;;;9.80;99.90;;;;;;5035331;28;20066;-70
2021/10/27 08:33:19;;;;;;;21.95;12.25;;;9.50;99.90;;;;;;5037288;28;20056;-70
2021/10/27 08:35:47;;;;;;;20.67;12.23;;;9.50;99.90;;;;;;5036638;28;20068;-69
2021/10/27 08:38:14;;;;;;;18.17;11.80;;;9.60;99.90;;;;;;5037674;28;20040;-70
2021/10/27 08:40:43;;;;;;;21.92;12.05;;;9.90;99.90;;;;;;5035445;28;20114;-70
2021/10/27 08:43:10;;;;;;;18.52;11.98;;;10.00;99.90;;;;;;5034759;28;20590;-70
2021/10/27 08:45:38;;;;;;;20.58;12.40;;;10.10;99.90;;;;;;5036529;28;20065;-70
2021/10/27 08:48:08;;;;;;;20.30;11.77;;;10.10;99.90;;;;;;5036509;28;20083;-70
2021/10/27 08:50:38;;;;;;;22.95;12.25;;;9.80;99.90;;;;;;5037404;28;20096;-70
2021/10/27 08:53:06;;;;;;;20.50;12.52;;;9.60;99.90;;;;;;5036290;28;20056;-70
2021/10/27 08:55:35;;;;;;;19.50;12.27;;;9.70;99.90;;;;;;5036308;28;20068;-69
2021/10/27 08:58:03;;;;;;;20.88;12.80;;;9.70;99.90;;;;;;5036532;28;20142;-70
2021/10/27 09:00:34;;;;;;;20.60;12.68;;;9.90;99.90;;;;;;5036074;28;20052;-70
2021/10/27 09:05:55;;;;;;;25.33;11.65;;;9.80;99.90;;;;;;5036505;28;20414;-70
2021/10/27 09:08:42;;;;;;;17.60;11.15;;;9.80;99.90;;;;;;5036495;28;20053;-69
2021/10/27 09:43:29;;;;;;;16.08;9.23;;;10.70;99.90;;;;;;5035012;28;20106;-72
2021/10/27 10:05:22;;;;;;;15.20;9.98;;;11.10;99.90;;;;;;5034288;28;20079;-68
2021/10/27 10:07:51;;;;;;;15.63;9.38;;;11.20;99.90;;;;;;5034910;28;20543;-68
2021/10/27 10:10:18;;;;;;;16.42;9.57;;;11.10;99.90;;;;;;5034793;28;20057;-68
2021/10/27 10:12:49;;;;;;;16.23;9.70;;;11.00;99.90;;;;;;5035451;28;20414;-68
2021/10/27 10:15:20;;;;;;;15.90;9.73;;;10.90;99.90;;;;;;5034986;28;20064;-68
2021/10/27 10:17:50;;;;;;;16.98;10.02;;;11.10;99.90;;;;;;5033964;28;20080;-68
2021/10/27 10:20:19;;;;;;;17.70;10.32;;;10.90;99.90;;;;;;5033342;28;20056;-70
2021/10/27 10:22:46;;;;;;;17.30;11.27;;;11.10;99.90;;;;;;5035250;28;20053;-70
2021/10/27 10:25:33;;;;;;;18.08;10.27;;;11.60;99.90;;;;;;5035818;28;20556;-71
2021/10/27 10:30:56;;;;;;;15.88;9.90;;;11.60;99.90;;;;;;5065636;27;20383;-70
2021/10/27 10:33:37;;;;;;;15.63;9.52;;;12.00;99.90;;;;;;5057448;28;20052;-69
2021/10/27 10:36:09;;;;;;;16.67;10.50;;;11.90;99.90;;;;;;5057216;28;20560;-70
2021/10/27 10:38:49;;;;;;;14.60;9.52;;;11.70;99.90;;;;;;5061116;28;20476;-70
2021/10/27 10:42:05;;;;;;;15.65;8.75;;;12.20;99.90;;;;;;5059843;28;20057;-69
2021/10/27 10:59:21;;;;;;;14.80;8.98;;;12.10;99.90;;;;;;5058093;28;20315;-69
2021/10/27 11:02:09;;;;;;;17.50;8.82;;;12.20;99.90;;;;;;5055105;28;20134;-70
2021/10/27 11:24:34;;;;;;;11.85;7.05;;;12.40;99.90;;;;;;5055938;28;20512;-70
2021/10/27 11:38:15;;;;;;;10.25;5.82;;;13.00;99.90;;;;;;5057135;28;20056;-70
2021/10/27 11:40:43;;;;;;;13.98;6.35;;;12.90;99.90;;;;;;5052567;28;20057;-69
2021/10/27 11:43:18;;;;;;;13.95;6.75;;;13.20;99.90;;;;;;5044096;28;20063;-70
2021/10/27 11:45:56;;;;;;;13.48;6.40;;;13.20;99.90;;;;;;5043661;28;20094;-70
2021/10/27 11:51:11;;;;;;;9.65;5.43;;;13.10;99.90;;;;;;5041149;28;20132;-70
2021/10/27 11:53:39;;;;;;;11.57;5.50;;;13.00;99.90;;;;;;5042687;28;20049;-69
2021/10/27 11:56:14;;;;;;;14.65;6.25;;;13.00;99.90;;;;;;5042654;28;20102;-69
2021/10/27 11:58:46;;;;;;;15.52;5.30;;;12.90;99.90;;;;;;5042932;28;20052;-69
2021/10/27 12:01:14;;;;;;;11.13;5.55;;;14.10;99.90;;;;;;5045591;28;20079;-70
2021/10/27 12:03:43;;;;;;;10.25;5.00;;;14.50;99.90;;;;;;5043258;28;20599;-70
2021/10/27 12:06:33;;;;;;;9.05;4.80;;;14.50;99.90;;;;;;5042665;28;20064;-70
2021/10/27 12:09:10;;;;;;;10.70;5.25;;;13.80;99.90;;;;;;5043502;28;20437;-69
2021/10/27 12:12:03;;;;;;;10.20;4.95;;;13.40;99.90;;;;;;5043169;28;20431;-69
2021/10/27 12:14:43;;;;;;;10.13;4.85;;;13.60;99.90;;;;;;5046686;28;20087;-69
2021/10/27 12:17:25;;;;;;;12.10;5.55;;;14.00;99.90;;;;;;5042013;28;20056;-69
2021/10/27 12:19:52;;;;;;;12.50;5.15;;;13.60;99.90;;;;;;5044051;28;20135;-70
2021/10/27 12:22:22;;;;;;;12.50;5.47;;;13.90;99.90;;;;;;5044010;28;20088;-70
2021/10/27 12:24:55;;;;;;;11.68;4.88;;;13.60;99.90;;;;;;5042521;28;20140;-69
2021/10/27 12:27:28;;;;;;;9.95;5.25;;;13.80;99.90;;;;;;5042645;28;20059;-69
2021/10/27 12:29:57;;;;;;;10.23;5.03;;;13.60;99.90;;;;;;5043832;28;20584;-69
2021/10/27 12:32:26;;;;;;;8.00;4.15;;;13.50;99.90;;;;;;5044246;28;20080;-69
2021/10/27 12:34:54;;;;;;;12.90;5.32;;;13.70;99.90;;;;;;5044172;28;20186;-69
2021/10/27 12:37:37;;;;;;;7.53;4.45;;;13.90;99.90;;;;;;5042777;28;20130;-69
2021/10/27 12:40:17;;;;;;;8.45;4.47;;;13.60;99.90;;;;;;5042971;28;20060;-69
2021/10/27 12:42:45;;;;;;;10.00;4.40;;;14.00;99.90;;;;;;5040176;28;20060;-69
2021/10/27 12:45:12;;;;;;;11.80;4.50;;;13.80;99.90;;;;;;5042162;28;20375;-70
2021/10/27 12:47:40;;;;;;;11.02;5.10;;;13.80;99.90;;;;;;5043758;28;20497;-70
2021/10/27 12:50:11;;;;;;;10.02;4.90;;;13.70;99.90;;;;;;5042069;28;20424;-70
2021/10/27 12:52:42;;;;;;;10.30;5.15;;;13.90;99.90;;;;;;5041018;28;20122;-70
2021/10/27 12:55:26;;;;;;;8.25;4.25;;;14.40;99.90;;;;;;5042171;28;20064;-70
2021/10/27 12:58:18;;;;;;;6.25;3.63;;;14.40;99.90;;;;;;5043531;28;20072;-70
2021/10/27 13:01:02;;;;;;;8.50;4.75;;;14.10;99.90;;;;;;5029409;28;20413;-70
2021/10/27 13:03:48;;;;;;;14.10;5.55;;;14.10;99.90;;;;;;5043249;28;20088;-70
2021/10/27 13:06:33;;;;;;;10.95;4.80;;;14.10;99.90;;;;;;5042785;28;20584;-70
2021/10/27 13:20:45;;;;;;;8.45;4.07;;;13.70;99.90;;;;;;5041083;28;20053;-69
2021/10/27 13:31:43;;;;;;;10.25;4.55;;;14.20;99.90;;;;;;5041398;28;20052;-70
2021/10/27 13:34:10;;;;;;;8.30;3.35;;;14.00;99.90;;;;;;5041438;28;20107;-70
2021/10/27 13:36:37;;;;;;;11.02;3.22;;;14.10;99.90;;;;;;5039812;28;20674;-70
2021/10/27 13:39:05;;;;;;;9.00;3.30;;;14.10;99.90;;;;;;5039944;28;20522;-70
2021/10/27 13:41:32;;;;;;;6.78;3.00;;;14.10;99.90;;;;;;5038714;28;20136;-70
2021/10/27 13:44:06;;;;;;;5.63;2.72;;;14.10;99.90;;;;;;5039788;28;20059;-70
2021/10/27 13:46:51;;;;;;;6.70;3.22;;;14.10;99.90;;;;;;5042225;28;20496;-69
2021/10/27 13:49:47;;;;;;;5.13;2.83;;;14.10;99.90;;;;;;5040821;28;20052;-70
2021/10/27 14:06:05;;;;;;;10.38;4.25;;;13.90;99.90;;;;;;5042606;28;20051;-70
2021/10/27 14:08:42;;;;;;;5.25;2.60;;;13.80;99.90;;;;;;5042378;28;20110;-69
2021/10/27 14:11:14;;;;;;;4.53;1.73;;;13.70;99.90;;;;;;5039868;28;20371;-71
2021/10/27 14:13:56;;;;;;;4.03;1.08;;;13.80;99.90;;;;;;5043118;28;20059;-71
2021/10/27 14:16:49;;;;;;;3.63;1.10;;;13.60;99.90;;;;;;5041933;28;20065;-70
2021/10/27 15:19:46;;;;;;;7.15;2.50;;;12.80;99.90;;;;;;5045398;28;21042;-68
2021/10/27 15:22:21;;;;;;;7.30;2.45;;;12.80;99.90;;;;;;5044580;28;20511;-69
2021/10/27 15:25:22;;;;;;;5.07;2.05;;;12.80;99.90;;;;;;5043661;28;20147;-69
2021/10/27 15:30:41;;;;;;;6.68;2.60;;;12.70;99.90;;;;;;5044985;28;20048;-69
2021/10/27 15:33:18;;;;;;;4.97;2.38;;;12.70;99.90;;;;;;5045005;28;20571;-69
2021/10/27 15:41:26;;;;;;;8.70;2.65;;;12.70;99.90;;;;;;5044505;28;20549;-69
2021/10/27 15:44:07;;;;;;;5.47;2.55;;;12.60;99.90;;;;;;5044410;28;20146;-69
2021/10/27 15:51:55;;;;;;;6.63;3.05;;;12.60;99.90;;;;;;5043561;28;20105;-70
2021/10/27 15:54:24;;;;;;;8.48;3.65;;;12.50;99.90;;;;;;5044875;28;20469;-70
2021/10/27 15:56:51;;;;;;;7.80;3.58;;;12.50;99.90;;;;;;5043436;28;20045;-70
2021/10/27 15:59:19;;;;;;;9.07;3.00;;;12.50;99.90;;;;;;5040981;28;20087;-70
2021/10/27 16:01:46;;;;;;;7.50;3.30;;;12.40;99.90;;;;;;5044790;28;20049;-71
2021/10/27 16:04:13;;;;;;;8.25;3.50;;;12.50;99.90;;;;;;5044904;28;20471;-71
2021/10/27 16:06:44;;;;;;;8.35;3.78;;;12.40;99.90;;;;;;5044650;28;20056;-69
2021/10/27 16:09:11;;;;;;;7.45;3.20;;;12.40;99.90;;;;;;5042575;28;20053;-69
2021/10/27 16:11:40;;;;;;;9.65;3.90;;;12.30;99.90;;;;;;5046001;28;20056;-69
2021/10/27 16:14:07;;;;;;;7.50;3.20;;;12.40;99.90;;;;;;5041866;28;20114;-69
2021/10/27 16:16:35;;;;;;;9.52;3.00;;;12.30;99.90;;;;;;5043623;28;20530;-68
2021/10/27 16:19:03;;;;;;;7.05;2.92;;;12.40;99.90;;;;;;5042773;28;20510;-69
2021/10/27 16:21:31;;;;;;;5.32;2.30;;;12.30;99.90;;;;;;5045026;28;20049;-69
2021/10/27 16:23:59;;;;;;;6.28;3.28;;;12.40;99.90;;;;;;5040523;28;20157;-69
2021/10/27 16:26:26;;;;;;;6.13;2.80;;;12.40;99.90;;;;;;5040425;28;20122;-69
2021/10/27 16:28:56;;;;;;;6.10;2.80;;;12.30;99.90;;;;;;5043097;28;20052;-69
2021/10/27 16:31:23;;;;;;;7.88;3.75;;;12.20;99.90;;;;;;5043574;28;20088;-69
2021/10/27 16:33:50;;;;;;;7.95;3.60;;;12.00;99.90;;;;;;5042906;28;20060;-69
2021/10/27 16:36:18;;;;;;;6.18;2.67;;;12.00;99.90;;;;;;5041937;28;20107;-69
2021/10/27 16:38:45;;;;;;;7.55;3.60;;;11.90;99.90;;;;;;5039968;28;20060;-69
2021/10/27 16:41:12;;;;;;;6.00;2.75;;;11.80;99.90;;;;;;5043648;28;20418;-68
2021/10/27 16:43:41;;;;;;;7.22;3.47;;;11.60;99.90;;;;;;5040677;28;20654;-69
2021/10/27 16:46:10;;;;;;;5.97;3.28;;;11.50;99.90;;;;;;5044938;28;20064;-68
2021/10/27 16:48:37;;;;;;;9.50;3.38;;;11.30;99.90;;;;;;5044041;28;20048;-69
2021/10/27 16:51:05;;;;;;;8.77;3.50;;;11.20;99.90;;;;;;5041993;28;20084;-69
2021/10/27 16:53:32;;;;;;;7.00;3.53;;;11.00;99.90;;;;;;5041301;28;20060;-69